sensor_id;sensor_type;location;lat;lon;timestamp;P1;durP1;ratioP1;P2;durP2;ratioP2
56828;SDS011;52443;50.130;8.718;2022-07-23T00:03:45;6.57;;;4.85;;
56828;SDS011;52443;50.130;8.718;2022-07-23T00:08:50;6.47;;;4.50;;
56828;SDS011;52443;50.130;8.718;2022-07-23T00:13:54;6.05;;;4.30;;
56828;SDS011;52443;50.130;8.718;2022-07-23T00:18:58;5.68;;;4.20;;
56828;SDS011;52443;50.130;8.718;2022-07-23T00:24:03;8.10;;;4.88;;
56828;SDS011;52443;50.130;8.718;2022-07-23T00:29:06;7.85;;;4.78;;
56828;SDS011;52443;50.130;8.718;2022-07-23T00:34:09;7.07;;;4.15;;
56828;SDS011;52443;50.130;8.718;2022-07-23T00:39:13;5.60;;;4.32;;
56828;SDS011;52443;50.130;8.718;2022-07-23T00:44:17;7.10;;;4.60;;
56828;SDS011;52443;50.130;8.718;2022-07-23T00:49:23;10.05;;;4.60;;
56828;SDS011;52443;50.130;8.718;2022-07-23T00:54:30;5.95;;;4.70;;
56828;SDS011;52443;50.130;8.718;2022-07-23T00:59:32;7.07;;;4.93;;
56828;SDS011;52443;50.130;8.718;2022-07-23T01:04:35;6.07;;;4.20;;
56828;SDS011;52443;50.130;8.718;2022-07-23T01:09:40;6.93;;;4.50;;
56828;SDS011;52443;50.130;8.718;2022-07-23T01:14:43;5.90;;;4.43;;
56828;SDS011;52443;50.130;8.718;2022-07-23T01:19:47;5.53;;;4.28;;
56828;SDS011;52443;50.130;8.718;2022-07-23T01:24:52;7.38;;;4.20;;
56828;SDS011;52443;50.130;8.718;2022-07-23T01:29:59;5.72;;;4.03;;
56828;SDS011;52443;50.130;8.718;2022-07-23T01:35:03;6.43;;;4.13;;
56828;SDS011;52443;50.130;8.718;2022-07-23T01:40:10;7.10;;;5.40;;
56828;SDS011;52443;50.130;8.718;2022-07-23T01:45:13;6.82;;;4.93;;
56828;SDS011;52443;50.130;8.718;2022-07-23T01:50:21;7.43;;;4.97;;
56828;SDS011;52443;50.130;8.718;2022-07-23T01:55:45;6.40;;;4.90;;
56828;SDS011;52443;50.130;8.718;2022-07-23T02:00:50;7.07;;;4.95;;
56828;SDS011;52443;50.130;8.718;2022-07-23T02:05:54;6.68;;;4.68;;
56828;SDS011;52443;50.130;8.718;2022-07-23T02:10:58;7.63;;;4.88;;
56828;SDS011;52443;50.130;8.718;2022-07-23T02:16:01;6.60;;;4.75;;
56828;SDS011;52443;50.130;8.718;2022-07-23T02:21:05;6.78;;;4.85;;
56828;SDS011;52443;50.130;8.718;2022-07-23T02:26:11;6.22;;;4.65;;
56828;SDS011;52443;50.130;8.718;2022-07-23T02:31:22;7.22;;;4.05;;
56828;SDS011;52443;50.130;8.718;2022-07-23T02:36:26;6.63;;;4.85;;
56828;SDS011;52443;50.130;8.718;2022-07-23T02:41:31;6.50;;;4.78;;
56828;SDS011;52443;50.130;8.718;2022-07-23T02:46:35;6.32;;;4.32;;
56828;SDS011;52443;50.130;8.718;2022-07-23T02:51:38;6.45;;;4.15;;
56828;SDS011;52443;50.130;8.718;2022-07-23T02:56:44;6.45;;;4.18;;
56828;SDS011;52443;50.130;8.718;2022-07-23T03:01:47;5.40;;;4.00;;
56828;SDS011;52443;50.130;8.718;2022-07-23T03:06:49;6.88;;;4.15;;
56828;SDS011;52443;50.130;8.718;2022-07-23T03:11:54;6.38;;;4.10;;
56828;SDS011;52443;50.130;8.718;2022-07-23T03:16:57;6.05;;;4.55;;
56828;SDS011;52443;50.130;8.718;2022-07-23T03:21:59;6.78;;;4.97;;
56828;SDS011;52443;50.130;8.718;2022-07-23T03:27:06;5.88;;;4.55;;
56828;SDS011;52443;50.130;8.718;2022-07-23T03:32:08;6.57;;;5.00;;
56828;SDS011;52443;50.130;8.718;2022-07-23T03:37:12;7.13;;;5.55;;
56828;SDS011;52443;50.130;8.718;2022-07-23T03:42:17;8.40;;;5.97;;
56828;SDS011;52443;50.130;8.718;2022-07-23T03:47:21;7.53;;;5.43;;
56828;SDS011;52443;50.130;8.718;2022-07-23T03:52:24;7.35;;;5.65;;
56828;SDS011;52443;50.130;8.718;2022-07-23T03:57:29;7.05;;;5.20;;
56828;SDS011;52443;50.130;8.718;2022-07-23T04:02:33;10.13;;;6.07;;
56828;SDS011;52443;50.130;8.718;2022-07-23T04:07:36;8.05;;;5.82;;
56828;SDS011;52443;50.130;8.718;2022-07-23T04:12:41;8.73;;;5.72;;
56828;SDS011;52443;50.130;8.718;2022-07-23T04:17:45;8.23;;;5.65;;
56828;SDS011;52443;50.130;8.718;2022-07-23T04:22:51;9.02;;;5.55;;
56828;SDS011;52443;50.130;8.718;2022-07-23T04:27:56;8.93;;;6.55;;
56828;SDS011;52443;50.130;8.718;2022-07-23T04:32:59;7.38;;;5.35;;
56828;SDS011;52443;50.130;8.718;2022-07-23T04:38:03;8.52;;;6.15;;
56828;SDS011;52443;50.130;8.718;2022-07-23T04:43:09;9.05;;;5.55;;
56828;SDS011;52443;50.130;8.718;2022-07-23T04:48:18;8.77;;;6.15;;
56828;SDS011;52443;50.130;8.718;2022-07-23T04:53:26;8.50;;;6.18;;
56828;SDS011;52443;50.130;8.718;2022-07-23T04:58:35;8.40;;;5.80;;
56828;SDS011;52443;50.130;8.718;2022-07-23T05:03:39;7.68;;;5.45;;
56828;SDS011;52443;50.130;8.718;2022-07-23T05:08:42;10.25;;;6.00;;
56828;SDS011;52443;50.130;8.718;2022-07-23T05:13:47;7.65;;;5.25;;
56828;SDS011;52443;50.130;8.718;2022-07-23T05:18:50;7.57;;;5.53;;
56828;SDS011;52443;50.130;8.718;2022-07-23T05:23:53;7.70;;;5.72;;
56828;SDS011;52443;50.130;8.718;2022-07-23T05:28:58;8.60;;;6.25;;
56828;SDS011;52443;50.130;8.718;2022-07-23T05:34:04;7.82;;;5.80;;
56828;SDS011;52443;50.130;8.718;2022-07-23T05:39:08;9.07;;;6.00;;
56828;SDS011;52443;50.130;8.718;2022-07-23T05:44:13;8.23;;;5.65;;
56828;SDS011;52443;50.130;8.718;2022-07-23T05:49:18;9.18;;;5.65;;
56828;SDS011;52443;50.130;8.718;2022-07-23T05:54:39;8.85;;;5.60;;
56828;SDS011;52443;50.130;8.718;2022-07-23T05:59:45;7.63;;;5.07;;
56828;SDS011;52443;50.130;8.718;2022-07-23T06:04:48;6.13;;;4.78;;
56828;SDS011;52443;50.130;8.718;2022-07-23T06:10:02;6.40;;;4.90;;
56828;SDS011;52443;50.130;8.718;2022-07-23T06:15:08;7.35;;;5.30;;
56828;SDS011;52443;50.130;8.718;2022-07-23T06:20:12;7.32;;;5.07;;
56828;SDS011;52443;50.130;8.718;2022-07-23T06:25:16;9.95;;;5.47;;
56828;SDS011;52443;50.130;8.718;2022-07-23T06:30:22;6.53;;;4.43;;
56828;SDS011;52443;50.130;8.718;2022-07-23T06:35:26;7.38;;;4.32;;
56828;SDS011;52443;50.130;8.718;2022-07-23T06:40:28;6.65;;;4.80;;
56828;SDS011;52443;50.130;8.718;2022-07-23T06:45:33;8.32;;;5.03;;
56828;SDS011;52443;50.130;8.718;2022-07-23T06:50:36;6.75;;;4.70;;
56828;SDS011;52443;50.130;8.718;2022-07-23T06:55:39;7.10;;;4.60;;
56828;SDS011;52443;50.130;8.718;2022-07-23T07:00:44;5.28;;;3.50;;
56828;SDS011;52443;50.130;8.718;2022-07-23T07:05:47;6.25;;;4.35;;
56828;SDS011;52443;50.130;8.718;2022-07-23T07:10:51;5.30;;;3.83;;
56828;SDS011;52443;50.130;8.718;2022-07-23T07:15:55;5.30;;;3.78;;
56828;SDS011;52443;50.130;8.718;2022-07-23T07:20:58;6.28;;;4.80;;
56828;SDS011;52443;50.130;8.718;2022-07-23T07:26:00;6.00;;;4.70;;
56828;SDS011;52443;50.130;8.718;2022-07-23T07:31:04;4.90;;;3.63;;
56828;SDS011;52443;50.130;8.718;2022-07-23T07:36:07;5.45;;;3.60;;
56828;SDS011;52443;50.130;8.718;2022-07-23T07:41:10;6.53;;;3.65;;
56828;SDS011;52443;50.130;8.718;2022-07-23T07:46:14;5.85;;;3.33;;
56828;SDS011;52443;50.130;8.718;2022-07-23T07:51:17;6.72;;;3.45;;
56828;SDS011;52443;50.130;8.718;2022-07-23T07:56:21;5.10;;;3.38;;
56828;SDS011;52443;50.130;8.718;2022-07-23T08:01:25;5.03;;;3.15;;
56828;SDS011;52443;50.130;8.718;2022-07-23T08:06:28;5.18;;;3.45;;
56828;SDS011;52443;50.130;8.718;2022-07-23T08:11:31;4.90;;;3.50;;
56828;SDS011;52443;50.130;8.718;2022-07-23T08:16:35;5.38;;;3.10;;
56828;SDS011;52443;50.130;8.718;2022-07-23T08:21:58;4.60;;;3.03;;
56828;SDS011;52443;50.130;8.718;2022-07-23T11:18:59;5.63;;;3.83;;
56828;SDS011;52443;50.130;8.718;2022-07-23T11:24:10;4.97;;;3.50;;
56828;SDS011;52443;50.130;8.718;2022-07-23T11:34:50;5.10;;;3.30;;
56828;SDS011;52443;50.130;8.718;2022-07-23T11:39:54;5.38;;;3.03;;
56828;SDS011;52443;50.130;8.718;2022-07-23T11:44:59;5.05;;;3.28;;
56828;SDS011;52443;50.130;8.718;2022-07-23T11:50:03;4.20;;;3.15;;
56828;SDS011;52443;50.130;8.718;2022-07-23T11:55:09;6.18;;;3.75;;
56828;SDS011;52443;50.130;8.718;2022-07-23T12:00:15;5.63;;;3.33;;
56828;SDS011;52443;50.130;8.718;2022-07-23T12:05:22;4.20;;;3.23;;
56828;SDS011;52443;50.130;8.718;2022-07-23T12:10:28;5.10;;;3.67;;
56828;SDS011;52443;50.130;8.718;2022-07-23T12:15:39;5.40;;;3.10;;
56828;SDS011;52443;50.130;8.718;2022-07-23T12:20:45;4.90;;;3.60;;
56828;SDS011;52443;50.130;8.718;2022-07-23T12:25:51;4.15;;;3.22;;
56828;SDS011;52443;50.130;8.718;2022-07-23T12:30:57;4.82;;;3.40;;
56828;SDS011;52443;50.130;8.718;2022-07-23T12:36:01;3.90;;;3.08;;
56828;SDS011;52443;50.130;8.718;2022-07-23T12:41:06;3.97;;;3.22;;
56828;SDS011;52443;50.130;8.718;2022-07-23T12:46:11;4.72;;;3.28;;
56828;SDS011;52443;50.130;8.718;2022-07-23T12:51:17;3.80;;;2.97;;
56828;SDS011;52443;50.130;8.718;2022-07-23T12:56:26;4.43;;;3.40;;
56828;SDS011;52443;50.130;8.718;2022-07-23T13:01:32;4.35;;;3.05;;
56828;SDS011;52443;50.130;8.718;2022-07-23T13:06:38;4.13;;;3.08;;
56828;SDS011;52443;50.130;8.718;2022-07-23T13:11:43;5.63;;;3.60;;
56828;SDS011;52443;50.130;8.718;2022-07-23T13:16:50;3.95;;;3.00;;
56828;SDS011;52443;50.130;8.718;2022-07-23T13:21:58;4.95;;;3.50;;
56828;SDS011;52443;50.130;8.718;2022-07-23T13:27:05;4.93;;;3.40;;
56828;SDS011;52443;50.130;8.718;2022-07-23T13:32:09;5.57;;;3.75;;
56828;SDS011;52443;50.130;8.718;2022-07-23T13:37:14;6.13;;;4.20;;
56828;SDS011;52443;50.130;8.718;2022-07-23T13:42:17;6.05;;;4.07;;
56828;SDS011;52443;50.130;8.718;2022-07-23T13:47:24;7.18;;;4.05;;
56828;SDS011;52443;50.130;8.718;2022-07-23T13:52:27;5.35;;;3.88;;
56828;SDS011;52443;50.130;8.718;2022-07-23T13:57:30;5.63;;;4.45;;
56828;SDS011;52443;50.130;8.718;2022-07-23T14:02:36;6.18;;;4.28;;
56828;SDS011;52443;50.130;8.718;2022-07-23T14:07:42;5.30;;;3.95;;
56828;SDS011;52443;50.130;8.718;2022-07-23T14:12:47;11.48;;;4.45;;
56828;SDS011;52443;50.130;8.718;2022-07-23T14:17:52;5.43;;;4.10;;
56828;SDS011;52443;50.130;8.718;2022-07-23T14:22:56;6.32;;;4.10;;
56828;SDS011;52443;50.130;8.718;2022-07-23T14:28:01;5.22;;;3.95;;
56828;SDS011;52443;50.130;8.718;2022-07-23T14:33:06;6.18;;;4.72;;
56828;SDS011;52443;50.130;8.718;2022-07-23T14:38:10;5.30;;;3.88;;
56828;SDS011;52443;50.130;8.718;2022-07-23T14:43:15;6.03;;;4.40;;
56828;SDS011;52443;50.130;8.718;2022-07-23T14:48:19;5.15;;;3.55;;
56828;SDS011;52443;50.130;8.718;2022-07-23T14:53:23;5.88;;;3.90;;
56828;SDS011;52443;50.130;8.718;2022-07-23T14:58:27;5.53;;;4.05;;
56828;SDS011;52443;50.130;8.718;2022-07-23T15:03:33;6.05;;;4.10;;
56828;SDS011;52443;50.130;8.718;2022-07-23T15:08:55;4.82;;;3.65;;
56828;SDS011;52443;50.130;8.718;2022-07-23T15:13:58;5.25;;;4.00;;
56828;SDS011;52443;50.130;8.718;2022-07-23T15:19:02;4.57;;;3.35;;
56828;SDS011;52443;50.130;8.718;2022-07-23T15:24:08;6.03;;;3.70;;
56828;SDS011;52443;50.130;8.718;2022-07-23T15:29:11;5.38;;;3.50;;
56828;SDS011;52443;50.130;8.718;2022-07-23T15:34:15;6.78;;;3.60;;
56828;SDS011;52443;50.130;8.718;2022-07-23T15:39:18;5.07;;;3.40;;
56828;SDS011;52443;50.130;8.718;2022-07-23T15:44:21;4.88;;;3.50;;
56828;SDS011;52443;50.130;8.718;2022-07-23T15:49:45;5.38;;;3.40;;
56828;SDS011;52443;50.130;8.718;2022-07-23T15:54:50;6.20;;;3.60;;
56828;SDS011;52443;50.130;8.718;2022-07-23T15:59:53;5.30;;;3.50;;
56828;SDS011;52443;50.130;8.718;2022-07-23T16:04:58;4.97;;;3.40;;
56828;SDS011;52443;50.130;8.718;2022-07-23T16:10:01;4.03;;;3.00;;
56828;SDS011;52443;50.130;8.718;2022-07-23T16:15:05;4.90;;;3.20;;
56828;SDS011;52443;50.130;8.718;2022-07-23T16:20:11;4.70;;;3.15;;
56828;SDS011;52443;50.130;8.718;2022-07-23T16:25:14;4.30;;;3.00;;
56828;SDS011;52443;50.130;8.718;2022-07-23T16:30:16;4.65;;;2.97;;
56828;SDS011;52443;50.130;8.718;2022-07-23T16:35:22;5.82;;;3.22;;
56828;SDS011;52443;50.130;8.718;2022-07-23T16:40:26;4.85;;;3.40;;
56828;SDS011;52443;50.130;8.718;2022-07-23T16:45:29;4.10;;;3.03;;
56828;SDS011;52443;50.130;8.718;2022-07-23T16:50:33;4.72;;;3.15;;
56828;SDS011;52443;50.130;8.718;2022-07-23T16:55:38;3.97;;;2.80;;
56828;SDS011;52443;50.130;8.718;2022-07-23T17:00:41;4.00;;;2.83;;
56828;SDS011;52443;50.130;8.718;2022-07-23T17:05:45;4.68;;;2.80;;
56828;SDS011;52443;50.130;8.718;2022-07-23T17:10:48;4.47;;;2.95;;
56828;SDS011;52443;50.130;8.718;2022-07-23T17:15:52;4.50;;;2.90;;
56828;SDS011;52443;50.130;8.718;2022-07-23T17:20:57;4.55;;;3.00;;
56828;SDS011;52443;50.130;8.718;2022-07-23T17:26:07;7.05;;;3.08;;
56828;SDS011;52443;50.130;8.718;2022-07-23T17:31:09;3.33;;;2.65;;
56828;SDS011;52443;50.130;8.718;2022-07-23T17:36:14;5.18;;;2.85;;
56828;SDS011;52443;50.130;8.718;2022-07-23T17:41:16;3.95;;;2.67;;
56828;SDS011;52443;50.130;8.718;2022-07-23T17:46:19;3.55;;;2.83;;
56828;SDS011;52443;50.130;8.718;2022-07-23T17:51:23;4.10;;;2.80;;
56828;SDS011;52443;50.130;8.718;2022-07-23T17:56:27;3.90;;;2.65;;
56828;SDS011;52443;50.130;8.718;2022-07-23T18:01:29;5.40;;;2.60;;
56828;SDS011;52443;50.130;8.718;2022-07-23T18:06:34;4.57;;;3.05;;
56828;SDS011;52443;50.130;8.718;2022-07-23T18:11:37;5.75;;;3.00;;
56828;SDS011;52443;50.130;8.718;2022-07-23T18:16:41;4.07;;;2.80;;
56828;SDS011;52443;50.130;8.718;2022-07-23T18:21:45;4.30;;;2.80;;
56828;SDS011;52443;50.130;8.718;2022-07-23T18:26:49;3.65;;;2.65;;
56828;SDS011;52443;50.130;8.718;2022-07-23T18:31:51;3.92;;;3.00;;
56828;SDS011;52443;50.130;8.718;2022-07-23T18:36:57;3.88;;;2.67;;
56828;SDS011;52443;50.130;8.718;2022-07-23T18:42:00;3.80;;;2.80;;
56828;SDS011;52443;50.130;8.718;2022-07-23T18:47:08;4.20;;;2.72;;
56828;SDS011;52443;50.130;8.718;2022-07-23T18:52:12;4.65;;;2.60;;
56828;SDS011;52443;50.130;8.718;2022-07-23T18:57:16;3.78;;;2.63;;
56828;SDS011;52443;50.130;8.718;2022-07-23T19:02:20;3.88;;;2.53;;
56828;SDS011;52443;50.130;8.718;2022-07-23T19:07:24;4.15;;;2.58;;
56828;SDS011;52443;50.130;8.718;2022-07-23T19:12:27;4.32;;;2.70;;
56828;SDS011;52443;50.130;8.718;2022-07-23T19:17:29;4.63;;;2.90;;
56828;SDS011;52443;50.130;8.718;2022-07-23T19:22:34;4.35;;;2.75;;
56828;SDS011;52443;50.130;8.718;2022-07-23T19:27:38;4.38;;;2.88;;
56828;SDS011;52443;50.130;8.718;2022-07-23T19:32:40;4.47;;;2.83;;
56828;SDS011;52443;50.130;8.718;2022-07-23T19:37:45;4.47;;;2.90;;
56828;SDS011;52443;50.130;8.718;2022-07-23T19:42:47;4.20;;;3.08;;
56828;SDS011;52443;50.130;8.718;2022-07-23T19:47:56;4.97;;;2.95;;
56828;SDS011;52443;50.130;8.718;2022-07-23T19:53:00;4.15;;;2.95;;
56828;SDS011;52443;50.130;8.718;2022-07-23T19:58:04;4.88;;;3.00;;
56828;SDS011;52443;50.130;8.718;2022-07-23T20:03:07;4.47;;;2.92;;
56828;SDS011;52443;50.130;8.718;2022-07-23T20:08:11;4.97;;;3.10;;
56828;SDS011;52443;50.130;8.718;2022-07-23T20:13:19;3.88;;;2.72;;
56828;SDS011;52443;50.130;8.718;2022-07-23T20:18:21;3.65;;;2.58;;
56828;SDS011;52443;50.130;8.718;2022-07-23T20:23:25;5.03;;;2.85;;
56828;SDS011;52443;50.130;8.718;2022-07-23T20:28:32;4.93;;;3.10;;
56828;SDS011;52443;50.130;8.718;2022-07-23T20:35:09;4.75;;;2.97;;
56828;SDS011;52443;50.130;8.718;2022-07-23T20:41:21;5.27;;;3.57;;
56828;SDS011;52443;50.130;8.718;2022-07-23T20:47:14;5.07;;;3.33;;
56828;SDS011;52443;50.130;8.718;2022-07-23T20:52:18;4.97;;;3.58;;
56828;SDS011;52443;50.130;8.718;2022-07-23T20:57:25;5.20;;;3.33;;
56828;SDS011;52443;50.130;8.718;2022-07-23T21:02:29;5.03;;;2.95;;
56828;SDS011;52443;50.130;8.718;2022-07-23T21:07:51;5.25;;;3.60;;
56828;SDS011;52443;50.130;8.718;2022-07-23T21:13:59;5.20;;;3.75;;
56828;SDS011;52443;50.130;8.718;2022-07-23T21:19:02;6.50;;;3.70;;
56828;SDS011;52443;50.130;8.718;2022-07-23T21:24:06;5.80;;;3.63;;
56828;SDS011;52443;50.130;8.718;2022-07-23T21:29:11;5.30;;;3.55;;
56828;SDS011;52443;50.130;8.718;2022-07-23T21:34:18;4.75;;;3.03;;
56828;SDS011;52443;50.130;8.718;2022-07-23T21:39:21;5.07;;;3.40;;
56828;SDS011;52443;50.130;8.718;2022-07-23T21:44:25;4.45;;;2.97;;
56828;SDS011;52443;50.130;8.718;2022-07-23T21:49:27;4.45;;;3.08;;
56828;SDS011;52443;50.130;8.718;2022-07-23T21:54:30;7.22;;;3.03;;
56828;SDS011;52443;50.130;8.718;2022-07-23T21:59:34;4.15;;;2.80;;
56828;SDS011;52443;50.130;8.718;2022-07-23T22:04:39;5.85;;;2.92;;
56828;SDS011;52443;50.130;8.718;2022-07-23T22:09:57;5.90;;;3.00;;
56828;SDS011;52443;50.130;8.718;2022-07-23T22:15:15;3.58;;;2.70;;
56828;SDS011;52443;50.130;8.718;2022-07-23T22:20:25;3.92;;;2.83;;
56828;SDS011;52443;50.130;8.718;2022-07-23T22:25:38;4.68;;;3.00;;
56828;SDS011;52443;50.130;8.718;2022-07-23T22:31:02;3.55;;;2.67;;
56828;SDS011;52443;50.130;8.718;2022-07-23T22:36:08;4.63;;;2.70;;
56828;SDS011;52443;50.130;8.718;2022-07-23T22:41:11;4.97;;;2.70;;
56828;SDS011;52443;50.130;8.718;2022-07-23T22:46:15;4.05;;;2.70;;
56828;SDS011;52443;50.130;8.718;2022-07-23T22:51:18;5.47;;;3.05;;
56828;SDS011;52443;50.130;8.718;2022-07-23T22:56:22;3.88;;;2.70;;
56828;SDS011;52443;50.130;8.718;2022-07-23T23:01:26;3.90;;;2.58;;
56828;SDS011;52443;50.130;8.718;2022-07-23T23:06:30;4.07;;;2.75;;
56828;SDS011;52443;50.130;8.718;2022-07-23T23:11:33;3.38;;;2.50;;
56828;SDS011;52443;50.130;8.718;2022-07-23T23:16:37;3.67;;;2.60;;
56828;SDS011;52443;50.130;8.718;2022-07-23T23:21:41;3.47;;;2.60;;
56828;SDS011;52443;50.130;8.718;2022-07-23T23:26:44;3.55;;;2.70;;
56828;SDS011;52443;50.130;8.718;2022-07-23T23:31:48;3.03;;;2.13;;
56828;SDS011;52443;50.130;8.718;2022-07-23T23:36:51;3.05;;;2.22;;
56828;SDS011;52443;50.130;8.718;2022-07-23T23:41:56;3.45;;;2.15;;
56828;SDS011;52443;50.130;8.718;2022-07-23T23:47:00;3.00;;;2.30;;
56828;SDS011;52443;50.130;8.718;2022-07-23T23:52:03;3.60;;;2.13;;
56828;SDS011;52443;50.130;8.718;2022-07-23T23:57:06;3.35;;;2.22;;
